Time;durP1;ratioP1;P1;durP2;ratioP2;P2;SDS_P1;SDS_P2;PMS_P1;PMS_P2;Temp;Humidity;BMP_temperature;BMP_pressure;BME280_temperature;BME280_humidity;BME280_pressure;Samples;Min_cycle;Max_cycle;Signal;HPM_P1;HPM_P2
2021/09/13 00:00:44;;;;;;;25.17;20.03;;;17.20;99.90;;;;;;5063404;28;20473;-61
2021/09/13 00:03:12;;;;;;;35.60;24.50;;;17.20;99.90;;;;;;5063390;28;20427;-61
2021/09/13 00:05:39;;;;;;;30.90;21.00;;;17.20;99.90;;;;;;5064258;28;20437;-60
2021/09/13 00:08:07;;;;;;;29.57;20.00;;;17.20;99.90;;;;;;5064635;28;20519;-58
2021/09/13 00:10:34;;;;;;;30.33;21.20;;;17.20;99.90;;;;;;5063342;28;20438;-60
2021/09/13 00:13:01;;;;;;;28.23;21.17;;;17.10;99.90;;;;;;5060636;28;20463;-61
2021/09/13 00:15:28;;;;;;;29.40;21.83;;;17.10;99.90;;;;;;5061856;28;20438;-61
2021/09/13 00:17:55;;;;;;;28.97;20.10;;;17.10;99.90;;;;;;5061908;28;20436;-61
2021/09/13 00:20:22;;;;;;;25.17;17.83;;;17.00;99.90;;;;;;5061612;28;20407;-61
2021/09/13 00:22:50;;;;;;;28.13;20.03;;;17.10;99.90;;;;;;5061403;28;20652;-61
2021/09/13 00:25:17;;;;;;;32.13;20.07;;;16.80;99.90;;;;;;5060991;28;20436;-62
2021/09/13 00:27:44;;;;;;;30.30;21.37;;;16.60;99.90;;;;;;5061284;28;20461;-59
2021/09/13 00:30:12;;;;;;;36.07;22.10;;;16.70;99.90;;;;;;5061653;28;20428;-62
2021/09/13 00:32:39;;;;;;;34.00;20.30;;;16.80;99.90;;;;;;5059921;28;20428;-61
2021/09/13 00:35:06;;;;;;;28.40;19.13;;;16.90;99.90;;;;;;5061018;28;20473;-55
2021/09/13 00:37:34;;;;;;;27.20;20.40;;;16.90;99.90;;;;;;5048969;28;20442;-60
2021/09/13 00:40:01;;;;;;;25.52;19.27;;;16.90;99.90;;;;;;5056962;28;20734;-60
2021/09/13 00:42:28;;;;;;;33.37;19.20;;;16.80;99.90;;;;;;5061474;28;20227;-59
2021/09/13 00:44:57;;;;;;;28.10;20.57;;;16.80;99.90;;;;;;5061252;28;20443;-61
2021/09/13 00:47:24;;;;;;;29.40;20.33;;;16.80;99.90;;;;;;5057877;28;20505;-61
2021/09/13 00:49:51;;;;;;;26.93;19.63;;;16.80;99.90;;;;;;5057415;28;20434;-60
2021/09/13 00:52:18;;;;;;;28.37;20.37;;;16.70;99.90;;;;;;5060209;28;20453;-56
2021/09/13 00:54:46;;;;;;;29.35;21.05;;;16.70;99.90;;;;;;5060809;28;20415;-62
2021/09/13 00:57:14;;;;;;;26.47;19.40;;;16.60;99.90;;;;;;5061248;28;20650;-62
2021/09/13 00:59:42;;;;;;;26.47;18.33;;;16.50;99.90;;;;;;5061154;28;20450;-62
2021/09/13 01:02:09;;;;;;;29.57;20.50;;;16.60;99.90;;;;;;5060773;28;20458;-61
2021/09/13 01:04:36;;;;;;;23.77;19.00;;;16.60;99.90;;;;;;5060702;28;20445;-62
2021/09/13 01:07:03;;;;;;;30.60;21.20;;;16.60;99.90;;;;;;5043484;28;20472;-62
2021/09/13 01:09:31;;;;;;;33.97;19.90;;;16.60;99.90;;;;;;5058129;28;20476;-61
2021/09/13 01:11:58;;;;;;;30.53;19.03;;;16.60;99.90;;;;;;4995876;28;1623718;-61
2021/09/13 01:14:35;;;;;;;26.40;19.30;;;16.60;99.90;;;;;;5061645;28;20439;-61
2021/09/13 01:17:03;;;;;;;29.23;20.23;;;16.60;99.90;;;;;;5062414;28;20200;-62
2021/09/13 01:19:30;;;;;;;24.40;17.77;;;16.70;99.90;;;;;;5061507;28;20466;-61
2021/09/13 01:22:03;;;;;;;30.30;20.23;;;16.60;99.90;;;;;;5061673;28;20435;-62
2021/09/13 01:24:32;;;;;;;29.08;19.40;;;16.60;99.90;;;;;;5061541;28;20467;-62
2021/09/13 01:27:02;;;;;;;27.58;18.63;;;16.60;99.90;;;;;;5058821;28;20220;-62
2021/09/13 01:29:30;;;;;;;29.57;21.50;;;16.50;99.90;;;;;;5061528;28;20214;-60
2021/09/13 01:31:58;;;;;;;29.90;19.38;;;16.50;99.90;;;;;;5056530;28;20467;-62
2021/09/13 01:34:26;;;;;;;26.83;18.50;;;16.50;99.90;;;;;;5061586;28;20504;-62
2021/09/13 01:36:53;;;;;;;27.80;18.50;;;16.50;99.90;;;;;;5061030;28;20460;-62
2021/09/13 01:39:20;;;;;;;25.35;17.25;;;16.50;99.90;;;;;;5053682;28;20204;-64
2021/09/13 01:41:48;;;;;;;26.05;19.60;;;16.50;99.90;;;;;;5060640;28;20224;-62
2021/09/13 01:44:16;;;;;;;26.50;18.60;;;16.50;99.90;;;;;;5061207;28;20252;-61
2021/09/13 01:46:44;;;;;;;23.75;19.02;;;16.40;99.90;;;;;;5060858;28;20201;-63
2021/09/13 01:49:13;;;;;;;31.00;19.30;;;16.40;99.90;;;;;;5058112;28;20272;-63
2021/09/13 01:51:40;;;;;;;26.33;17.80;;;16.40;99.90;;;;;;5056165;28;20455;-63
2021/09/13 01:54:07;;;;;;;28.15;20.30;;;16.40;99.90;;;;;;5061774;28;20405;-63
2021/09/13 01:56:34;;;;;;;22.30;17.48;;;16.30;99.90;;;;;;5060765;28;20414;-63
2021/09/13 01:59:01;;;;;;;32.00;18.80;;;16.30;99.90;;;;;;5060865;28;20423;-61
2021/09/13 02:01:29;;;;;;;24.65;17.77;;;16.30;99.90;;;;;;5060739;28;20221;-63
2021/09/13 02:03:57;;;;;;;24.90;16.52;;;16.30;99.90;;;;;;5060235;28;20201;-64
2021/09/13 02:06:24;;;;;;;24.00;18.20;;;16.30;99.90;;;;;;5053386;28;20500;-62
2021/09/13 02:08:51;;;;;;;24.90;17.43;;;16.20;99.90;;;;;;5060545;28;20232;-62
2021/09/13 02:11:19;;;;;;;22.73;17.20;;;16.20;99.90;;;;;;5060659;28;20511;-60
2021/09/13 02:13:46;;;;;;;28.58;19.08;;;16.20;99.90;;;;;;5060728;28;20408;-62
2021/09/13 02:16:13;;;;;;;29.08;20.90;;;16.10;99.90;;;;;;5060932;28;20196;-63
2021/09/13 02:18:40;;;;;;;29.98;17.75;;;16.00;99.90;;;;;;5060588;28;20205;-60
2021/09/13 02:21:08;;;;;;;28.40;18.88;;;15.90;99.90;;;;;;5060508;28;20219;-63
2021/09/13 02:23:35;;;;;;;26.27;19.00;;;16.00;99.90;;;;;;5060177;28;20446;-63
2021/09/13 02:26:02;;;;;;;26.30;18.98;;;16.10;99.90;;;;;;5060826;28;20246;-63
2021/09/13 02:28:29;;;;;;;35.70;20.42;;;16.10;99.90;;;;;;5054134;28;20224;-63
2021/09/13 02:30:57;;;;;;;28.83;20.40;;;16.10;99.90;;;;;;5060105;28;20226;-63
2021/09/13 02:33:24;;;;;;;32.70;20.33;;;16.10;99.90;;;;;;5060302;28;20532;-63
2021/09/13 02:35:51;;;;;;;31.17;18.98;;;16.10;99.90;;;;;;5060248;28;20441;-62
2021/09/13 02:38:18;;;;;;;25.63;17.60;;;16.10;99.90;;;;;;5059915;28;20222;-63
2021/09/13 02:40:45;;;;;;;26.92;18.70;;;16.00;99.90;;;;;;5060266;28;20665;-63
2021/09/13 02:43:12;;;;;;;24.55;15.52;;;16.00;99.90;;;;;;5059757;28;20382;-61
2021/09/13 02:45:40;;;;;;;25.65;18.67;;;16.00;99.90;;;;;;5050394;28;20278;-63
2021/09/13 02:48:07;;;;;;;26.27;18.70;;;16.00;99.90;;;;;;5058791;28;20277;-63
2021/09/13 02:50:34;;;;;;;24.90;19.23;;;15.90;99.90;;;;;;5059571;28;20266;-63
2021/09/13 02:53:02;;;;;;;25.90;18.15;;;15.90;99.90;;;;;;5059943;28;20199;-64
2021/09/13 02:55:29;;;;;;;26.80;18.88;;;15.80;99.90;;;;;;5060011;28;20246;-63
2021/09/13 02:57:56;;;;;;;26.45;17.58;;;15.90;99.90;;;;;;5060110;28;20257;-63
2021/09/13 03:00:23;;;;;;;23.85;17.60;;;15.90;99.90;;;;;;5059690;28;20246;-64
2021/09/13 03:02:50;;;;;;;21.55;17.30;;;15.80;99.90;;;;;;5059877;28;20211;-63
2021/09/13 03:05:18;;;;;;;25.92;17.83;;;15.80;99.90;;;;;;5060063;28;20209;-62
2021/09/13 03:07:45;;;;;;;30.70;19.88;;;15.80;99.90;;;;;;5059296;28;20211;-65
2021/09/13 03:10:13;;;;;;;24.02;16.95;;;15.80;99.90;;;;;;5059788;28;20254;-62
2021/09/13 03:12:40;;;;;;;27.60;18.73;;;15.80;99.90;;;;;;5058746;28;20404;-63
2021/09/13 03:15:09;;;;;;;22.92;17.17;;;15.80;99.90;;;;;;5059780;28;20211;-64
2021/09/13 03:17:37;;;;;;;34.25;18.67;;;15.80;99.90;;;;;;5059208;28;20207;-63
2021/09/13 03:20:04;;;;;;;29.75;19.38;;;15.80;99.90;;;;;;5059607;28;20211;-63
2021/09/13 03:22:32;;;;;;;24.77;17.00;;;15.70;99.90;;;;;;5059213;28;20277;-62
2021/09/13 03:24:59;;;;;;;27.15;17.83;;;15.70;99.90;;;;;;5060126;28;20209;-65
2021/09/13 03:27:26;;;;;;;27.27;17.45;;;15.70;99.90;;;;;;5060089;28;20200;-64
2021/09/13 03:29:53;;;;;;;23.15;17.80;;;15.80;99.90;;;;;;5059640;28;20196;-63
2021/09/13 03:32:20;;;;;;;29.45;18.08;;;15.70;99.90;;;;;;5059533;28;20407;-62
2021/09/13 03:34:47;;;;;;;31.95;19.98;;;15.60;99.90;;;;;;5059969;28;20200;-65
2021/09/13 03:37:15;;;;;;;31.40;19.75;;;15.60;99.90;;;;;;5060108;28;20195;-64
2021/09/13 03:39:42;;;;;;;25.33;18.08;;;15.70;99.90;;;;;;5059550;28;20200;-64
2021/09/13 03:42:10;;;;;;;30.60;17.70;;;15.70;99.90;;;;;;5058347;28;20246;-64
2021/09/13 03:44:37;;;;;;;27.58;19.08;;;15.80;99.90;;;;;;5055142;28;20203;-64
2021/09/13 03:47:04;;;;;;;31.80;20.10;;;15.80;99.90;;;;;;5052222;28;20253;-63
2021/09/13 03:49:31;;;;;;;28.65;17.48;;;15.90;99.90;;;;;;5059758;28;20227;-61
2021/09/13 03:51:59;;;;;;;28.77;20.00;;;15.90;99.90;;;;;;5059455;28;20220;-64
2021/09/13 03:54:26;;;;;;;29.33;18.70;;;15.90;99.90;;;;;;5042203;28;20394;-65
2021/09/13 03:56:53;;;;;;;24.20;17.02;;;16.00;99.90;;;;;;5059453;28;20199;-64
2021/09/13 03:59:20;;;;;;;26.73;18.77;;;15.80;99.90;;;;;;5058987;28;20207;-66
2021/09/13 04:01:48;;;;;;;29.35;19.52;;;16.00;99.90;;;;;;5058447;28;20277;-63
2021/09/13 04:04:21;;;;;;;27.92;18.92;;;16.10;99.90;;;;;;5059879;28;20203;-66
2021/09/13 04:06:52;;;;;;;32.53;19.20;;;16.10;99.90;;;;;;5059731;28;20266;-64
2021/09/13 04:11:53;;;;;;;34.72;20.10;;;16.30;99.90;;;;;;5058816;28;20447;-61
2021/09/13 04:14:22;;;;;;;26.27;18.10;;;16.40;99.90;;;;;;5059291;28;20434;-63
2021/09/13 04:16:50;;;;;;;29.65;18.55;;;16.40;99.90;;;;;;5059107;28;20467;-65
2021/09/13 04:19:18;;;;;;;25.85;18.20;;;16.40;99.90;;;;;;5058892;28;20372;-65
2021/09/13 04:21:45;;;;;;;28.48;19.55;;;16.50;99.90;;;;;;5059163;28;20225;-65
2021/09/13 04:24:14;;;;;;;23.57;17.37;;;16.40;99.90;;;;;;5058756;28;20272;-65
2021/09/13 04:26:41;;;;;;;23.60;17.03;;;16.40;99.90;;;;;;5061460;28;20675;-64
2021/09/13 04:29:09;;;;;;;22.97;17.70;;;16.30;99.90;;;;;;5062201;28;20732;-64
2021/09/13 04:31:36;;;;;;;26.17;19.27;;;16.20;99.90;;;;;;5062291;28;20543;-63
2021/09/13 04:34:04;;;;;;;23.85;17.13;;;16.20;99.90;;;;;;5062460;28;20527;-62
2021/09/13 04:36:31;;;;;;;25.35;17.73;;;16.20;99.90;;;;;;5062117;28;20208;-63
2021/09/13 04:38:58;;;;;;;23.10;17.08;;;16.20;99.90;;;;;;5062915;28;20213;-65
2021/09/13 04:41:27;;;;;;;25.15;17.88;;;16.00;99.90;;;;;;5062328;28;20232;-59
2021/09/13 04:43:54;;;;;;;23.95;18.48;;;16.00;99.90;;;;;;5058225;28;20545;-62
2021/09/13 04:46:22;;;;;;;26.50;20.73;;;16.10;99.90;;;;;;5062265;28;20200;-63
2021/09/13 04:48:52;;;;;;;27.08;18.27;;;16.10;99.90;;;;;;5062051;28;20216;-64
2021/09/13 04:51:19;;;;;;;26.85;17.45;;;16.20;99.90;;;;;;5053802;28;20226;-63
2021/09/13 04:53:47;;;;;;;22.55;17.88;;;16.30;99.90;;;;;;5055005;28;20246;-64
2021/09/13 04:56:14;;;;;;;25.25;18.38;;;16.10;99.90;;;;;;5062136;28;20203;-64
2021/09/13 04:58:41;;;;;;;23.15;17.50;;;16.10;99.90;;;;;;5061984;28;20241;-64
2021/09/13 05:01:08;;;;;;;21.25;18.48;;;16.10;99.90;;;;;;5062250;28;20220;-63
2021/09/13 05:03:36;;;;;;;27.67;19.60;;;16.20;99.90;;;;;;5061298;28;20228;-63
2021/09/13 05:06:04;;;;;;;30.55;20.90;;;16.30;99.90;;;;;;5061323;28;20388;-64
2021/09/13 05:08:31;;;;;;;28.00;20.65;;;16.50;99.90;;;;;;5061938;28;20228;-64
2021/09/13 05:10:59;;;;;;;27.30;19.90;;;16.60;99.90;;;;;;5061430;28;20229;-62
2021/09/13 05:13:26;;;;;;;23.70;18.38;;;16.70;99.90;;;;;;5061399;28;20482;-63
2021/09/13 05:15:54;;;;;;;25.83;18.80;;;16.60;99.90;;;;;;5061824;28;20203;-63
2021/09/13 05:18:24;;;;;;;31.73;20.98;;;16.70;99.90;;;;;;5061602;28;20445;-64
2021/09/13 05:20:52;;;;;;;29.77;20.00;;;16.70;99.90;;;;;;5044301;28;21640;-64
2021/09/13 05:23:19;;;;;;;24.87;20.30;;;16.70;99.90;;;;;;5061105;28;20205;-62
2021/09/13 05:25:46;;;;;;;30.13;22.03;;;17.10;99.90;;;;;;5061156;28;20460;-62
2021/09/13 05:28:13;;;;;;;34.50;23.37;;;17.20;99.90;;;;;;5061113;28;20473;-62
2021/09/13 05:30:41;;;;;;;26.77;20.70;;;17.40;99.90;;;;;;5061490;28;20777;-62
2021/09/13 05:33:08;;;;;;;27.57;20.07;;;17.40;99.90;;;;;;5060588;28;20455;-63
2021/09/13 05:35:35;;;;;;;25.93;19.40;;;17.10;99.90;;;;;;5061095;28;20422;-61
2021/09/13 05:38:03;;;;;;;27.00;19.87;;;17.30;99.90;;;;;;5060253;28;20403;-62
2021/09/13 05:40:30;;;;;;;25.13;20.00;;;17.60;99.90;;;;;;5060943;28;20433;-62
2021/09/13 05:43:01;;;;;;;24.30;18.47;;;17.60;99.90;;;;;;5061007;28;20468;-62
2021/09/13 05:45:29;;;;;;;21.60;16.30;;;17.60;99.90;;;;;;5052253;28;20527;-62
2021/09/13 05:47:57;;;;;;;24.33;19.13;;;17.60;99.90;;;;;;5057869;28;20421;-62
2021/09/13 05:50:24;;;;;;;21.73;18.30;;;17.40;99.90;;;;;;5060941;28;20421;-62
2021/09/13 05:52:52;;;;;;;23.30;19.10;;;17.40;99.90;;;;;;5060729;28;20766;-61
2021/09/13 05:55:21;;;;;;;21.83;18.30;;;17.50;99.90;;;;;;5061140;28;20682;-60
2021/09/13 05:57:48;;;;;;;22.73;17.40;;;17.50;99.90;;;;;;5060851;28;20493;-60
2021/09/13 06:00:18;;;;;;;20.87;17.30;;;17.40;99.90;;;;;;5060956;28;20429;-59
2021/09/13 06:02:45;;;;;;;23.60;19.03;;;17.50;99.90;;;;;;5061032;28;20450;-61
2021/09/13 06:05:13;;;;;;;21.33;17.80;;;17.70;99.90;;;;;;5061039;28;20446;-62
2021/09/13 06:07:40;;;;;;;24.23;17.73;;;18.00;99.90;;;;;;5058769;28;20445;-59
2021/09/13 06:10:08;;;;;;;22.40;18.70;;;18.10;99.90;;;;;;5060621;28;20685;-62
2021/09/13 06:12:37;;;;;;;21.40;18.80;;;18.30;99.90;;;;;;5059717;28;20754;-62
2021/09/13 06:15:05;;;;;;;21.23;17.50;;;18.30;99.90;;;;;;5059819;28;20414;-60
2021/09/13 06:17:32;;;;;;;19.90;16.10;;;18.10;99.90;;;;;;5060310;28;20410;-61
2021/09/13 06:20:00;;;;;;;23.00;18.47;;;17.90;99.90;;;;;;5060749;28;20430;-58
2021/09/13 06:22:27;;;;;;;20.23;17.10;;;17.90;99.90;;;;;;5059179;28;20439;-58
2021/09/13 06:24:54;;;;;;;21.57;19.10;;;17.90;99.90;;;;;;5038987;28;20464;-58
2021/09/13 06:27:21;;;;;;;17.37;14.47;;;17.60;99.90;;;;;;5059433;28;20621;-60
2021/09/13 06:29:48;;;;;;;24.83;17.93;;;17.80;99.90;;;;;;5056439;28;20487;-62
2021/09/13 06:32:16;;;;;;;16.77;15.07;;;17.60;99.90;;;;;;5059521;28;20787;-60
2021/09/13 06:34:43;;;;;;;19.67;16.00;;;17.70;99.90;;;;;;5058884;28;20407;-60
2021/09/13 06:37:11;;;;;;;18.93;16.93;;;17.90;99.90;;;;;;5058446;28;20616;-58
2021/09/13 06:39:38;;;;;;;18.10;16.20;;;18.00;99.90;;;;;;5058637;28;20491;-59
2021/09/13 06:42:05;;;;;;;19.30;16.60;;;17.90;99.90;;;;;;5058772;28;20438;-60
2021/09/13 06:44:33;;;;;;;20.17;17.73;;;17.80;99.90;;;;;;5058935;28;20412;-55
2021/09/13 06:47:10;;;;;;;19.20;16.83;;;18.00;99.90;;;;;;5052033;28;20418;-62
2021/09/13 06:49:37;;;;;;;20.27;17.83;;;18.30;99.90;;;;;;5058211;28;20449;-59
2021/09/13 06:52:05;;;;;;;20.10;17.50;;;18.40;99.90;;;;;;5059480;28;20590;-63
2021/09/13 06:54:32;;;;;;;21.70;18.03;;;18.40;99.90;;;;;;5058791;28;20559;-62
2021/09/13 06:57:01;;;;;;;22.30;18.47;;;18.60;99.90;;;;;;5058253;28;20787;-61
2021/09/13 06:59:28;;;;;;;18.93;17.03;;;18.80;99.90;;;;;;5058955;28;20440;-61
2021/09/13 07:01:55;;;;;;;23.00;17.17;;;19.10;99.90;;;;;;5058532;28;20438;-61
2021/09/13 07:04:24;;;;;;;18.40;16.30;;;19.30;99.90;;;;;;5058551;28;20410;-62
2021/09/13 07:06:52;;;;;;;21.53;18.03;;;19.60;99.90;;;;;;5058421;28;20551;-61
2021/09/13 07:09:20;;;;;;;21.37;16.60;;;19.80;99.90;;;;;;5058594;28;20454;-61
2021/09/13 07:11:47;;;;;;;18.43;16.60;;;20.00;99.90;;;;;;5058705;28;20480;-61
2021/09/13 07:14:14;;;;;;;14.70;13.10;;;20.40;99.90;;;;;;5058538;28;20430;-63
2021/09/13 07:16:41;;;;;;;16.37;14.77;;;21.00;99.90;;;;;;5059144;28;20415;-61
2021/09/13 07:19:09;;;;;;;15.47;13.97;;;22.00;99.90;;;;;;5058838;28;20474;-62
2021/09/13 07:21:36;;;;;;;13.27;11.90;;;22.60;99.90;;;;;;5056693;28;20514;-62
2021/09/13 07:24:04;;;;;;;12.70;11.50;;;23.40;99.90;;;;;;5057877;28;20417;-58
2021/09/13 07:26:31;;;;;;;12.67;11.40;;;23.50;99.90;;;;;;5058968;28;20411;-60
2021/09/13 07:28:59;;;;;;;10.87;9.97;;;24.00;99.90;;;;;;5057910;28;20714;-61
2021/09/13 07:31:26;;;;;;;12.03;11.03;;;24.90;99.90;;;;;;5054011;28;20486;-60
2021/09/13 07:33:53;;;;;;;13.23;10.90;;;26.20;99.90;;;;;;5054591;28;20432;-62
2021/09/13 07:36:20;;;;;;;10.80;9.80;;;27.50;99.90;;;;;;5058142;28;20441;-61
2021/09/13 07:38:48;;;;;;;10.63;9.63;;;28.60;99.90;;;;;;5058259;28;20441;-63
2021/09/13 07:41:15;;;;;;;11.63;10.63;;;29.60;99.90;;;;;;5058778;28;20624;-63
2021/09/13 07:43:42;;;;;;;12.00;10.97;;;30.40;99.90;;;;;;5055717;28;20500;-63
2021/09/13 07:46:09;;;;;;;12.67;11.57;;;31.20;99.90;;;;;;5049804;28;20503;-63
2021/09/13 07:48:37;;;;;;;12.00;11.00;;;30.60;99.90;;;;;;5057311;28;20743;-61
2021/09/13 07:51:04;;;;;;;13.73;12.70;;;31.10;99.90;;;;;;5052165;28;20453;-64
2021/09/13 07:53:31;;;;;;;11.73;10.73;;;31.40;99.90;;;;;;5058111;28;20437;-61
2021/09/13 07:55:59;;;;;;;11.70;10.80;;;31.70;99.90;;;;;;5055060;28;20674;-63
2021/09/13 07:58:26;;;;;;;12.77;11.77;;;32.70;98.10;;;;;;5058110;28;20476;-61
2021/09/13 08:00:53;;;;;;;13.20;12.30;;;33.80;95.50;;;;;;5058330;28;20859;-62
2021/09/13 08:03:21;;;;;;;12.40;11.50;;;34.50;94.40;;;;;;5054883;28;20466;-62
2021/09/13 08:05:48;;;;;;;13.30;12.50;;;35.40;93.10;;;;;;5058663;28;20492;-63
2021/09/13 08:08:15;;;;;;;16.57;15.27;;;36.20;92.00;;;;;;5061982;28;20432;-64
2021/09/13 08:10:42;;;;;;;14.60;13.50;;;36.90;90.10;;;;;;5061714;28;20675;-64
2021/09/13 08:13:09;;;;;;;15.30;14.37;;;36.80;88.50;;;;;;5061788;28;20435;-56
2021/09/13 08:15:37;;;;;;;13.73;12.93;;;36.50;85.00;;;;;;5054130;28;20487;-62
2021/09/13 08:18:04;;;;;;;12.93;12.10;;;36.30;87.00;;;;;;5054660;28;20492;-61
2021/09/13 08:20:31;;;;;;;13.90;12.90;;;35.60;87.20;;;;;;5056077;28;20464;-61
2021/09/13 08:22:58;;;;;;;13.73;12.87;;;34.20;87.80;;;;;;5055671;28;20476;-61
2021/09/13 08:25:25;;;;;;;14.90;13.67;;;34.20;88.60;;;;;;5055431;28;20436;-55
2021/09/13 08:27:52;;;;;;;13.60;12.50;;;34.00;89.80;;;;;;5055071;28;20483;-59
2021/09/13 08:30:20;;;;;;;14.70;13.70;;;33.10;91.00;;;;;;5037758;28;20826;-60
2021/09/13 08:32:47;;;;;;;12.90;12.00;;;32.60;92.30;;;;;;5054050;28;20444;-61
2021/09/13 08:35:17;;;;;;;13.23;12.40;;;32.70;92.40;;;;;;5060899;28;20429;-61
2021/09/13 08:37:45;;;;;;;12.50;11.60;;;32.40;91.60;;;;;;5061836;28;20469;-57
2021/09/13 08:40:13;;;;;;;13.07;12.10;;;31.80;92.80;;;;;;5060338;28;20663;-57
2021/09/13 08:42:48;;;;;;;11.37;10.57;;;30.50;94.00;;;;;;5060973;28;20809;-58
2021/09/13 08:45:21;;;;;;;12.27;11.37;;;30.30;94.90;;;;;;5054811;28;20563;-52
2021/09/13 08:48:41;;;;;;;12.60;11.70;;;29.50;95.70;;;;;;5057202;28;20452;-60
2021/09/13 08:53:09;;;;;;;12.10;11.23;;;28.00;99.10;;;;;;5058644;28;20441;-59
2021/09/13 08:55:36;;;;;;;11.30;10.50;;;28.60;98.10;;;;;;5060547;28;20432;-59
2021/09/13 08:58:03;;;;;;;10.07;9.17;;;28.70;99.00;;;;;;5061181;28;20441;-56
2021/09/13 09:00:33;;;;;;;11.50;10.60;;;29.20;97.60;;;;;;5060346;28;20817;-57
2021/09/13 09:03:04;;;;;;;11.97;11.07;;;30.90;95.40;;;;;;5061077;28;20430;-63
2021/09/13 09:05:44;;;;;;;9.60;9.00;;;31.60;94.80;;;;;;5061459;28;20433;-57
2021/09/13 09:08:25;;;;;;;10.17;9.47;;;32.20;93.60;;;;;;5060703;28;20430;-62
2021/09/13 09:10:55;;;;;;;10.53;9.80;;;33.10;91.90;;;;;;5060072;28;20491;-61
2021/09/13 09:13:23;;;;;;;10.23;9.50;;;33.60;91.00;;;;;;5059416;28;20468;-60
2021/09/13 09:16:03;;;;;;;10.90;10.13;;;33.00;91.40;;;;;;5060327;28;20575;-62
2021/09/13 09:18:39;;;;;;;11.33;10.53;;;31.80;91.50;;;;;;5059743;28;20465;-61
2021/09/13 09:21:11;;;;;;;11.30;10.40;;;31.50;93.10;;;;;;5059799;28;20826;-62
2021/09/13 09:23:57;;;;;;;11.60;10.90;;;30.40;93.70;;;;;;5059766;28;20440;-61
2021/09/13 09:26:25;;;;;;;11.50;10.70;;;29.50;94.50;;;;;;5058577;28;20443;-61
2021/09/13 09:28:54;;;;;;;10.70;9.80;;;29.20;95.10;;;;;;5060129;28;20471;-61
2021/09/13 09:31:37;;;;;;;13.83;11.07;;;29.00;95.70;;;;;;5059693;28;20506;-61
2021/09/13 09:34:12;;;;;;;11.50;9.07;;;29.50;94.70;;;;;;5042814;28;20524;-61
2021/09/13 09:36:39;;;;;;;9.37;8.57;;;30.00;93.80;;;;;;5058426;28;20531;-62
2021/09/13 09:39:13;;;;;;;9.10;8.50;;;30.70;93.70;;;;;;5060054;28;20468;-61
2021/09/13 09:41:44;;;;;;;8.90;8.03;;;30.40;93.70;;;;;;5055524;28;20699;-60
2021/09/13 09:44:11;;;;;;;10.20;9.43;;;29.40;93.70;;;;;;5056173;28;20434;-59
2021/09/13 09:46:42;;;;;;;9.30;8.70;;;27.90;96.30;;;;;;5055709;28;20436;-58
2021/09/13 09:49:15;;;;;;;8.57;7.97;;;26.60;98.00;;;;;;5055732;28;20687;-57
2021/09/13 09:51:50;;;;;;;9.60;8.43;;;25.90;99.60;;;;;;5053829;28;20449;-56
2021/09/13 09:54:19;;;;;;;8.57;7.87;;;25.70;99.90;;;;;;5054244;28;20722;-60
2021/09/13 09:57:08;;;;;;;8.40;7.60;;;25.40;99.90;;;;;;5051938;28;20488;-58
2021/09/13 09:59:40;;;;;;;7.43;6.93;;;25.20;99.90;;;;;;5052975;28;20432;-60
2021/09/13 10:02:16;;;;;;;7.57;6.97;;;24.90;99.90;;;;;;5037903;28;20694;-59
2021/09/13 10:04:46;;;;;;;7.10;6.60;;;24.80;99.90;;;;;;5049144;28;20453;-58
2021/09/13 10:07:15;;;;;;;6.50;6.00;;;24.80;99.90;;;;;;5055962;28;20412;-59
2021/09/13 10:09:43;;;;;;;6.83;6.33;;;25.00;99.90;;;;;;5054997;28;20484;-56
2021/09/13 10:12:11;;;;;;;5.87;5.57;;;25.20;99.90;;;;;;5054799;28;20783;-57
2021/09/13 10:14:39;;;;;;;7.40;6.70;;;25.20;99.90;;;;;;5053762;28;20503;-58
2021/09/13 10:17:07;;;;;;;7.77;7.27;;;25.30;99.90;;;;;;5036604;28;20434;-59
2021/09/13 10:19:49;;;;;;;7.20;6.73;;;25.00;99.90;;;;;;5052370;28;20643;-60
2021/09/13 10:22:16;;;;;;;9.60;6.80;;;24.80;99.90;;;;;;5054922;28;20461;-57
2021/09/13 10:24:47;;;;;;;9.30;6.10;;;24.80;99.90;;;;;;5053205;28;20734;-58
2021/09/13 10:27:17;;;;;;;7.30;6.77;;;24.90;99.90;;;;;;5054695;28;20440;-57
2021/09/13 10:29:44;;;;;;;5.80;5.50;;;25.20;99.90;;;;;;5053365;28;20480;-58
2021/09/13 10:32:23;;;;;;;6.10;5.60;;;25.40;99.90;;;;;;5053794;28;20810;-59
2021/09/13 10:34:51;;;;;;;6.20;5.80;;;25.50;99.90;;;;;;5052189;28;20808;-57
2021/09/13 10:37:21;;;;;;;8.00;7.40;;;25.90;99.40;;;;;;5058376;28;20436;-60
2021/09/13 10:39:53;;;;;;;6.93;6.43;;;26.30;98.10;;;;;;5058174;28;20613;-53
2021/09/13 10:42:41;;;;;;;7.23;6.63;;;26.30;97.80;;;;;;5045831;28;20445;-60
2021/09/13 10:45:27;;;;;;;7.27;6.73;;;26.10;98.00;;;;;;5056635;28;20425;-51
2021/09/13 10:47:54;;;;;;;7.60;7.00;;;26.00;98.50;;;;;;5056451;28;20437;-55
2021/09/13 10:50:33;;;;;;;6.60;6.10;;;26.00;98.40;;;;;;5058614;28;20475;-57
2021/09/13 10:53:02;;;;;;;7.77;7.13;;;25.50;99.10;;;;;;5058113;28;20429;-55
2021/09/13 10:55:44;;;;;;;6.27;5.87;;;25.20;99.90;;;;;;5058214;28;20438;-56
2021/09/13 10:58:13;;;;;;;6.60;6.20;;;24.90;99.90;;;;;;5058219;28;20482;-59
2021/09/13 11:00:40;;;;;;;6.43;5.97;;;24.50;99.90;;;;;;5057846;28;20825;-57
2021/09/13 11:06:03;;;;;;;7.03;6.50;;;23.80;99.90;;;;;;5058131;28;20437;-60
2021/09/13 11:08:41;;;;;;;6.83;6.23;;;23.60;99.90;;;;;;5057824;28;20474;-56
2021/09/13 11:11:17;;;;;;;5.70;5.20;;;23.60;99.90;;;;;;5056883;28;20535;-55
2021/09/13 11:14:05;;;;;;;6.80;6.10;;;24.10;99.90;;;;;;5040256;28;20482;-57
2021/09/13 11:16:38;;;;;;;7.60;7.00;;;24.50;99.90;;;;;;5051916;28;20432;-57
2021/09/13 11:19:10;;;;;;;6.90;6.40;;;24.60;99.90;;;;;;5057965;28;20429;-60
2021/09/13 11:21:45;;;;;;;6.30;5.90;;;24.40;99.90;;;;;;5057811;28;20435;-57
2021/09/13 11:24:24;;;;;;;6.50;6.03;;;24.40;99.90;;;;;;5057822;28;20441;-58
2021/09/13 11:26:57;;;;;;;6.03;5.57;;;24.40;99.90;;;;;;5057921;28;20411;-56
2021/09/13 11:29:28;;;;;;;7.43;6.10;;;24.40;99.90;;;;;;5057722;28;20440;-55
2021/09/13 11:31:58;;;;;;;6.30;5.90;;;24.40;99.90;;;;;;5057485;28;20456;-57
2021/09/13 11:34:39;;;;;;;6.40;5.80;;;24.60;99.90;;;;;;5057736;28;20437;-57
2021/09/13 11:37:25;;;;;;;5.63;5.23;;;24.60;99.90;;;;;;5062162;28;20505;-58
2021/09/13 11:40:14;;;;;;;5.47;4.80;;;24.90;99.90;;;;;;5060443;28;20596;-58
2021/09/13 11:42:41;;;;;;;5.83;5.17;;;25.10;99.90;;;;;;5061521;28;20460;-58
2021/09/13 11:45:13;;;;;;;5.80;5.10;;;25.30;99.90;;;;;;5059615;28;20659;-55
2021/09/13 11:48:03;;;;;;;5.40;5.00;;;25.10;99.90;;;;;;5054679;28;20843;-57
2021/09/13 11:50:36;;;;;;;5.60;5.20;;;24.70;99.90;;;;;;5053179;28;20525;-60
2021/09/13 11:53:14;;;;;;;6.30;5.90;;;24.60;99.90;;;;;;5054450;28;20619;-57
2021/09/13 11:55:41;;;;;;;6.83;6.33;;;24.70;99.90;;;;;;5057573;28;20468;-56
2021/09/13 11:58:09;;;;;;;5.87;5.40;;;24.70;99.90;;;;;;5060636;28;20436;-58
2021/09/13 12:00:36;;;;;;;5.60;5.30;;;24.80;99.90;;;;;;5062018;28;20464;-54
2021/09/13 12:03:05;;;;;;;6.03;5.63;;;24.50;99.90;;;;;;5062209;28;20441;-56
2021/09/13 12:05:37;;;;;;;5.63;5.33;;;24.20;99.90;;;;;;5061978;28;20464;-54
2021/09/13 12:08:10;;;;;;;7.07;6.57;;;23.90;99.90;;;;;;5061605;28;20782;-55
2021/09/13 12:10:39;;;;;;;7.17;6.60;;;23.80;99.90;;;;;;5061251;28;20973;-58
2021/09/13 12:13:15;;;;;;;6.57;6.07;;;23.90;99.90;;;;;;5061565;28;20809;-57
2021/09/13 12:15:52;;;;;;;6.67;6.27;;;23.90;99.90;;;;;;5061415;28;20407;-58
2021/09/13 12:18:20;;;;;;;6.57;5.97;;;23.80;99.90;;;;;;5060979;28;20663;-56
2021/09/13 12:20:49;;;;;;;5.70;5.37;;;23.60;99.90;;;;;;5060642;28;20499;-57
2021/09/13 12:23:24;;;;;;;7.83;7.33;;;23.60;99.90;;;;;;5061048;28;20461;-59
2021/09/13 12:25:55;;;;;;;7.40;6.53;;;23.40;99.90;;;;;;5061323;28;20470;-56
2021/09/13 12:28:33;;;;;;;5.97;5.57;;;23.40;99.90;;;;;;5053321;28;20445;-57
2021/09/13 12:31:12;;;;;;;6.00;5.60;;;23.50;99.90;;;;;;5060334;28;20814;-53
2021/09/13 12:33:49;;;;;;;6.33;5.83;;;23.40;99.90;;;;;;5061056;28;20441;-56
2021/09/13 12:36:21;;;;;;;5.53;5.13;;;23.30;99.90;;;;;;5061386;28;20508;-56
2021/09/13 12:38:56;;;;;;;7.30;6.80;;;23.30;99.90;;;;;;5060806;28;20461;-56
2021/09/13 12:41:29;;;;;;;6.13;5.73;;;23.20;99.90;;;;;;5060536;28;20456;-59
2021/09/13 12:43:57;;;;;;;6.60;6.00;;;23.40;99.90;;;;;;5057981;28;20448;-56
2021/09/13 12:46:28;;;;;;;6.13;5.73;;;23.40;99.90;;;;;;5060547;28;20481;-56
2021/09/13 12:49:01;;;;;;;6.37;5.97;;;23.50;99.90;;;;;;5060968;28;20639;-59
2021/09/13 12:51:28;;;;;;;5.90;5.40;;;23.60;99.90;;;;;;5061078;28;20656;-55